sensor_id;sensor_type;location;lat;lon;timestamp;temperature;humidity
52769;DHT22;40471;44.534;18.644;2023-06-10T09:01:19;40.90;58.20
52769;DHT22;40471;44.534;18.644;2023-06-10T09:03:45;40.90;58.70
52769;DHT22;40471;44.534;18.644;2023-06-10T09:06:11;41.10;59.10
52769;DHT22;40471;44.534;18.644;2023-06-10T09:08:37;41.10;58.60
52769;DHT22;40471;44.534;18.644;2023-06-10T09:11:02;40.70;58.30
52769;DHT22;40471;44.534;18.644;2023-06-10T09:13:28;39.70;58.50
52769;DHT22;40471;44.534;18.644;2023-06-10T09:15:54;38.70;60.10
52769;DHT22;40471;44.534;18.644;2023-06-10T09:18:22;37.80;60.20
52769;DHT22;40471;44.534;18.644;2023-06-10T09:20:47;37.60;60.80
52769;DHT22;40471;44.534;18.644;2023-06-10T09:23:13;37.30;62.20
52769;DHT22;40471;44.534;18.644;2023-06-10T09:25:40;37.30;61.70
52769;DHT22;40471;44.534;18.644;2023-06-10T09:28:12;37.50;61.60
52769;DHT22;40471;44.534;18.644;2023-06-10T09:30:38;38.10;61.90
52769;DHT22;40471;44.534;18.644;2023-06-10T09:33:09;37.90;60.60
52769;DHT22;40471;44.534;18.644;2023-06-10T09:35:35;37.20;60.90
52769;DHT22;40471;44.534;18.644;2023-06-10T09:38:01;36.50;61.20
52769;DHT22;40471;44.534;18.644;2023-06-10T09:40:27;35.60;61.70
52769;DHT22;40471;44.534;18.644;2023-06-10T09:42:54;34.80;62.90
52769;DHT22;40471;44.534;18.644;2023-06-10T09:45:20;34.20;64.50
52769;DHT22;40471;44.534;18.644;2023-06-10T09:47:52;33.80;65.50
52769;DHT22;40471;44.534;18.644;2023-06-10T09:50:18;33.50;65.50
52769;DHT22;40471;44.534;18.644;2023-06-10T09:52:43;33.10;66.50
52769;DHT22;40471;44.534;18.644;2023-06-10T09:55:11;32.60;67.40
52769;DHT22;40471;44.534;18.644;2023-06-10T09:57:36;32.30;67.90
52769;DHT22;40471;44.534;18.644;2023-06-10T10:00:06;32.20;67.40
52769;DHT22;40471;44.534;18.644;2023-06-10T10:02:33;31.90;65.40
52769;DHT22;40471;44.534;18.644;2023-06-10T10:05:08;31.70;66.60
52769;DHT22;40471;44.534;18.644;2023-06-10T10:07:34;31.50;68.30
52769;DHT22;40471;44.534;18.644;2023-06-10T10:10:00;31.40;68.20
52769;DHT22;40471;44.534;18.644;2023-06-10T10:12:25;31.30;67.30
52769;DHT22;40471;44.534;18.644;2023-06-10T10:14:51;31.20;67.80
52769;DHT22;40471;44.534;18.644;2023-06-10T10:17:17;31.00;68.30
52769;DHT22;40471;44.534;18.644;2023-06-10T10:19:48;31.10;68.70
52769;DHT22;40471;44.534;18.644;2023-06-10T10:22:22;31.80;68.90
52769;DHT22;40471;44.534;18.644;2023-06-10T10:24:54;32.80;68.40
52769;DHT22;40471;44.534;18.644;2023-06-10T10:27:21;33.90;67.60
52769;DHT22;40471;44.534;18.644;2023-06-10T10:29:52;34.90;67.70
52769;DHT22;40471;44.534;18.644;2023-06-10T10:32:18;35.70;63.80
52769;DHT22;40471;44.534;18.644;2023-06-10T10:37:31;36.90;61.90
52769;DHT22;40471;44.534;18.644;2023-06-10T10:39:56;37.20;63.00
52769;DHT22;40471;44.534;18.644;2023-06-10T10:42:23;37.30;62.00
52769;DHT22;40471;44.534;18.644;2023-06-10T10:44:49;36.70;60.70
52769;DHT22;40471;44.534;18.644;2023-06-10T10:50:19;36.80;60.80
52769;DHT22;40471;44.534;18.644;2023-06-10T10:55:16;37.30;60.90
52769;DHT22;40471;44.534;18.644;2023-06-10T10:57:42;36.90;60.50
52769;DHT22;40471;44.534;18.644;2023-06-10T11:00:07;35.90;61.40
52769;DHT22;40471;44.534;18.644;2023-06-10T11:02:35;35.40;63.10
52769;DHT22;40471;44.534;18.644;2023-06-10T11:05:04;34.10;65.60
52769;DHT22;40471;44.534;18.644;2023-06-10T11:07:30;32.70;73.60
52769;DHT22;40471;44.534;18.644;2023-06-10T11:12:49;29.60;82.90
52769;DHT22;40471;44.534;18.644;2023-06-10T13:00:01;33.80;73.40
52769;DHT22;40471;44.534;18.644;2023-06-10T13:02:29;33.60;70.40
52769;DHT22;40471;44.534;18.644;2023-06-10T13:04:55;33.50;71.50
52769;DHT22;40471;44.534;18.644;2023-06-10T13:07:21;33.30;71.40
52769;DHT22;40471;44.534;18.644;2023-06-10T13:09:48;32.90;71.90
52769;DHT22;40471;44.534;18.644;2023-06-10T13:12:14;32.60;77.00
52769;DHT22;40471;44.534;18.644;2023-06-10T13:14:40;32.30;75.60
52769;DHT22;40471;44.534;18.644;2023-06-10T13:17:06;32.00;77.10
52769;DHT22;40471;44.534;18.644;2023-06-10T13:19:32;31.80;75.60
52769;DHT22;40471;44.534;18.644;2023-06-10T13:21:58;31.70;78.40
52769;DHT22;40471;44.534;18.644;2023-06-10T13:24:24;31.50;78.30
52769;DHT22;40471;44.534;18.644;2023-06-10T13:26:49;31.50;81.40
52769;DHT22;40471;44.534;18.644;2023-06-10T13:29:15;31.40;80.20
52769;DHT22;40471;44.534;18.644;2023-06-10T13:31:41;31.20;82.00
52769;DHT22;40471;44.534;18.644;2023-06-10T13:34:07;31.10;81.30
52769;DHT22;40471;44.534;18.644;2023-06-10T13:36:33;31.00;85.20
52769;DHT22;40471;44.534;18.644;2023-06-10T13:38:58;30.80;85.50
52769;DHT22;40471;44.534;18.644;2023-06-10T13:41:24;30.80;86.50
52769;DHT22;40471;44.534;18.644;2023-06-10T13:43:50;30.40;85.40
52769;DHT22;40471;44.534;18.644;2023-06-10T13:46:15;30.00;86.70
52769;DHT22;40471;44.534;18.644;2023-06-10T13:48:41;29.70;87.90
52769;DHT22;40471;44.534;18.644;2023-06-10T13:51:07;29.40;89.60
52769;DHT22;40471;44.534;18.644;2023-06-10T13:53:34;29.20;90.70
52769;DHT22;40471;44.534;18.644;2023-06-10T13:56:00;29.10;90.40
52769;DHT22;40471;44.534;18.644;2023-06-10T13:58:25;28.90;90.00
52769;DHT22;40471;44.534;18.644;2023-06-10T14:00:52;28.80;90.40
52769;DHT22;40471;44.534;18.644;2023-06-10T14:03:17;28.90;90.00
52769;DHT22;40471;44.534;18.644;2023-06-10T14:05:43;28.90;89.80
52769;DHT22;40471;44.534;18.644;2023-06-10T14:08:08;29.00;90.60
52769;DHT22;40471;44.534;18.644;2023-06-10T14:10:34;29.20;88.80
52769;DHT22;40471;44.534;18.644;2023-06-10T14:13:00;29.30;88.80
52769;DHT22;40471;44.534;18.644;2023-06-10T14:15:26;29.40;88.40
52769;DHT22;40471;44.534;18.644;2023-06-10T14:17:51;29.60;88.40
52769;DHT22;40471;44.534;18.644;2023-06-10T14:20:17;29.70;88.20
52769;DHT22;40471;44.534;18.644;2023-06-10T14:22:42;29.70;87.00
52769;DHT22;40471;44.534;18.644;2023-06-10T14:25:08;29.80;87.20
52769;DHT22;40471;44.534;18.644;2023-06-10T14:27:34;29.70;87.80
52769;DHT22;40471;44.534;18.644;2023-06-10T14:30:00;29.70;86.60
52769;DHT22;40471;44.534;18.644;2023-06-10T14:32:26;29.80;89.30
52769;DHT22;40471;44.534;18.644;2023-06-10T14:34:52;29.50;86.70
52769;DHT22;40471;44.534;18.644;2023-06-10T14:37:17;29.40;86.60
52769;DHT22;40471;44.534;18.644;2023-06-10T14:39:43;29.00;88.00
52769;DHT22;40471;44.534;18.644;2023-06-10T14:42:08;28.80;89.70
52769;DHT22;40471;44.534;18.644;2023-06-10T14:44:35;28.60;90.20
52769;DHT22;40471;44.534;18.644;2023-06-10T14:47:01;28.60;90.10
52769;DHT22;40471;44.534;18.644;2023-06-10T14:49:26;28.50;90.50
52769;DHT22;40471;44.534;18.644;2023-06-10T14:51:52;28.50;89.60
52769;DHT22;40471;44.534;18.644;2023-06-10T14:54:33;28.50;91.10
52769;DHT22;40471;44.534;18.644;2023-06-10T14:56:59;28.50;91.50
52769;DHT22;40471;44.534;18.644;2023-06-10T14:59:25;28.50;92.20
52769;DHT22;40471;44.534;18.644;2023-06-10T15:01:50;28.50;92.30
52769;DHT22;40471;44.534;18.644;2023-06-10T15:04:16;28.60;93.50
52769;DHT22;40471;44.534;18.644;2023-06-10T15:06:42;28.80;94.50
52769;DHT22;40471;44.534;18.644;2023-06-10T15:09:08;28.80;94.20
52769;DHT22;40471;44.534;18.644;2023-06-10T15:11:34;28.90;93.80
52769;DHT22;40471;44.534;18.644;2023-06-10T15:14:00;28.90;93.90
52769;DHT22;40471;44.534;18.644;2023-06-10T15:16:25;29.00;94.60
52769;DHT22;40471;44.534;18.644;2023-06-10T15:18:51;29.10;97.10
52769;DHT22;40471;44.534;18.644;2023-06-10T15:21:16;29.20;95.50
52769;DHT22;40471;44.534;18.644;2023-06-10T15:23:42;29.30;95.20
52769;DHT22;40471;44.534;18.644;2023-06-10T15:26:08;29.30;95.40
52769;DHT22;40471;44.534;18.644;2023-06-10T15:28:33;29.40;95.60
52769;DHT22;40471;44.534;18.644;2023-06-10T15:30:59;29.40;95.10
52769;DHT22;40471;44.534;18.644;2023-06-10T15:33:24;29.30;95.40
52769;DHT22;40471;44.534;18.644;2023-06-10T15:35:50;29.30;95.80
52769;DHT22;40471;44.534;18.644;2023-06-10T15:38:17;29.40;97.00
52769;DHT22;40471;44.534;18.644;2023-06-10T15:40:43;29.30;95.10
52769;DHT22;40471;44.534;18.644;2023-06-10T15:43:09;29.20;96.40
52769;DHT22;40471;44.534;18.644;2023-06-10T15:45:34;29.00;96.40
52769;DHT22;40471;44.534;18.644;2023-06-10T15:48:00;28.80;97.90
52769;DHT22;40471;44.534;18.644;2023-06-10T15:50:26;28.70;97.70
52769;DHT22;40471;44.534;18.644;2023-06-10T15:52:51;28.50;98.60
52769;DHT22;40471;44.534;18.644;2023-06-10T15:55:17;28.50;99.90
52769;DHT22;40471;44.534;18.644;2023-06-10T15:57:42;28.40;99.90
52769;DHT22;40471;44.534;18.644;2023-06-10T16:00:08;28.20;99.90
52769;DHT22;40471;44.534;18.644;2023-06-10T16:02:34;28.10;99.90
52769;DHT22;40471;44.534;18.644;2023-06-10T16:05:00;28.00;99.90
52769;DHT22;40471;44.534;18.644;2023-06-10T16:07:25;28.00;99.90
52769;DHT22;40471;44.534;18.644;2023-06-10T16:09:51;27.90;99.90
52769;DHT22;40471;44.534;18.644;2023-06-10T16:12:16;27.50;99.90
52769;DHT22;40471;44.534;18.644;2023-06-10T16:14:42;27.00;99.90
52769;DHT22;40471;44.534;18.644;2023-06-10T16:17:09;26.40;99.90
52769;DHT22;40471;44.534;18.644;2023-06-10T16:19:34;25.90;99.90
52769;DHT22;40471;44.534;18.644;2023-06-10T16:22:00;25.10;99.90
52769;DHT22;40471;44.534;18.644;2023-06-10T16:24:26;24.60;99.90
52769;DHT22;40471;44.534;18.644;2023-06-10T16:26:51;24.20;99.90
52769;DHT22;40471;44.534;18.644;2023-06-10T16:29:17;23.80;99.90
52769;DHT22;40471;44.534;18.644;2023-06-10T16:31:43;23.70;99.90
52769;DHT22;40471;44.534;18.644;2023-06-10T16:34:08;23.80;99.90
52769;DHT22;40471;44.534;18.644;2023-06-10T16:36:34;24.00;99.90
52769;DHT22;40471;44.534;18.644;2023-06-10T16:39:00;24.10;99.90
52769;DHT22;40471;44.534;18.644;2023-06-10T16:41:25;24.30;99.90
52769;DHT22;40471;44.534;18.644;2023-06-10T16:43:51;24.40;99.90
52769;DHT22;40471;44.534;18.644;2023-06-10T16:46:16;24.50;99.90
52769;DHT22;40471;44.534;18.644;2023-06-10T16:48:42;24.40;99.90
52769;DHT22;40471;44.534;18.644;2023-06-10T16:51:10;24.40;99.90
52769;DHT22;40471;44.534;18.644;2023-06-10T16:53:35;24.40;99.90
52769;DHT22;40471;44.534;18.644;2023-06-10T16:56:01;24.50;99.90
52769;DHT22;40471;44.534;18.644;2023-06-10T16:58:26;24.50;99.90
52769;DHT22;40471;44.534;18.644;2023-06-10T17:00:52;24.60;99.90
52769;DHT22;40471;44.534;18.644;2023-06-10T17:03:18;24.60;99.90
52769;DHT22;40471;44.534;18.644;2023-06-10T17:05:43;24.60;99.90
52769;DHT22;40471;44.534;18.644;2023-06-10T17:08:09;24.70;99.90
52769;DHT22;40471;44.534;18.644;2023-06-10T17:10:35;24.70;99.90
52769;DHT22;40471;44.534;18.644;2023-06-10T17:13:01;24.60;99.90
52769;DHT22;40471;44.534;18.644;2023-06-10T17:15:26;24.40;99.90
52769;DHT22;40471;44.534;18.644;2023-06-10T17:17:52;24.40;99.90
52769;DHT22;40471;44.534;18.644;2023-06-10T17:20:18;24.50;99.90
52769;DHT22;40471;44.534;18.644;2023-06-10T17:22:46;24.40;99.90
52769;DHT22;40471;44.534;18.644;2023-06-10T17:25:12;24.40;99.90
52769;DHT22;40471;44.534;18.644;2023-06-10T17:27:38;24.50;99.90
52769;DHT22;40471;44.534;18.644;2023-06-10T17:30:04;24.50;99.90
52769;DHT22;40471;44.534;18.644;2023-06-10T17:32:30;24.50;99.90
52769;DHT22;40471;44.534;18.644;2023-06-10T17:34:59;24.50;99.90
52769;DHT22;40471;44.534;18.644;2023-06-10T17:40:28;24.40;99.90
52769;DHT22;40471;44.534;18.644;2023-06-10T17:42:54;24.40;99.90
52769;DHT22;40471;44.534;18.644;2023-06-10T17:45:20;24.30;99.90
52769;DHT22;40471;44.534;18.644;2023-06-10T17:47:45;24.30;99.90
52769;DHT22;40471;44.534;18.644;2023-06-10T17:50:11;24.20;99.90
52769;DHT22;40471;44.534;18.644;2023-06-10T17:52:37;24.10;99.90
52769;DHT22;40471;44.534;18.644;2023-06-10T17:55:02;24.00;99.90
52769;DHT22;40471;44.534;18.644;2023-06-10T17:57:28;23.80;99.90
52769;DHT22;40471;44.534;18.644;2023-06-10T17:59:56;23.80;99.90
52769;DHT22;40471;44.534;18.644;2023-06-10T18:02:22;23.90;99.90
52769;DHT22;40471;44.534;18.644;2023-06-10T18:04:48;24.00;99.90
52769;DHT22;40471;44.534;18.644;2023-06-10T18:07:13;23.90;99.90
52769;DHT22;40471;44.534;18.644;2023-06-10T18:09:39;23.80;99.90
52769;DHT22;40471;44.534;18.644;2023-06-10T18:12:05;23.70;99.90
52769;DHT22;40471;44.534;18.644;2023-06-10T18:14:31;23.70;99.90
52769;DHT22;40471;44.534;18.644;2023-06-10T18:16:57;23.60;99.90
52769;DHT22;40471;44.534;18.644;2023-06-10T18:19:23;23.60;99.90
52769;DHT22;40471;44.534;18.644;2023-06-10T18:21:48;23.50;99.90
52769;DHT22;40471;44.534;18.644;2023-06-10T18:24:14;23.50;99.90
52769;DHT22;40471;44.534;18.644;2023-06-10T18:26:40;23.50;99.90
52769;DHT22;40471;44.534;18.644;2023-06-10T18:29:05;23.50;99.90
52769;DHT22;40471;44.534;18.644;2023-06-10T18:31:31;23.40;99.90
52769;DHT22;40471;44.534;18.644;2023-06-10T18:33:57;23.40;99.90
52769;DHT22;40471;44.534;18.644;2023-06-10T18:36:22;23.30;99.90
52769;DHT22;40471;44.534;18.644;2023-06-10T18:38:48;23.20;99.90
52769;DHT22;40471;44.534;18.644;2023-06-10T18:41:14;23.20;99.90
52769;DHT22;40471;44.534;18.644;2023-06-10T18:43:39;23.20;99.90
52769;DHT22;40471;44.534;18.644;2023-06-10T18:46:05;23.10;99.90
52769;DHT22;40471;44.534;18.644;2023-06-10T18:48:31;23.10;99.90
52769;DHT22;40471;44.534;18.644;2023-06-10T18:50:57;23.20;99.90
52769;DHT22;40471;44.534;18.644;2023-06-10T18:53:22;23.00;99.90
52769;DHT22;40471;44.534;18.644;2023-06-10T18:55:48;22.90;99.90
52769;DHT22;40471;44.534;18.644;2023-06-10T18:58:14;22.70;99.90
52769;DHT22;40471;44.534;18.644;2023-06-10T19:00:39;22.50;99.90
52769;DHT22;40471;44.534;18.644;2023-06-10T19:03:05;22.40;99.90
52769;DHT22;40471;44.534;18.644;2023-06-10T19:05:31;22.40;99.90
52769;DHT22;40471;44.534;18.644;2023-06-10T19:07:56;22.30;99.90
52769;DHT22;40471;44.534;18.644;2023-06-10T19:10:22;22.40;99.90
52769;DHT22;40471;44.534;18.644;2023-06-10T19:12:47;22.40;99.90
52769;DHT22;40471;44.534;18.644;2023-06-10T19:15:13;22.50;99.90
52769;DHT22;40471;44.534;18.644;2023-06-10T19:17:39;22.50;99.90
52769;DHT22;40471;44.534;18.644;2023-06-10T19:20:06;22.50;99.90
52769;DHT22;40471;44.534;18.644;2023-06-10T19:22:32;22.50;99.90
52769;DHT22;40471;44.534;18.644;2023-06-10T19:24:58;22.50;99.90
52769;DHT22;40471;44.534;18.644;2023-06-10T19:27:24;22.40;99.90
52769;DHT22;40471;44.534;18.644;2023-06-10T19:29:50;22.40;99.90
52769;DHT22;40471;44.534;18.644;2023-06-10T19:32:15;22.40;99.90
52769;DHT22;40471;44.534;18.644;2023-06-10T19:34:41;22.40;99.90
52769;DHT22;40471;44.534;18.644;2023-06-10T19:37:07;22.40;99.90
52769;DHT22;40471;44.534;18.644;2023-06-10T19:39:32;22.30;99.90
52769;DHT22;40471;44.534;18.644;2023-06-10T19:41:58;22.30;99.90
52769;DHT22;40471;44.534;18.644;2023-06-10T19:44:23;22.30;99.90
52769;DHT22;40471;44.534;18.644;2023-06-10T19:46:50;22.30;99.90
52769;DHT22;40471;44.534;18.644;2023-06-10T19:49:15;22.30;99.90
52769;DHT22;40471;44.534;18.644;2023-06-10T19:51:41;22.20;99.90
52769;DHT22;40471;44.534;18.644;2023-06-10T19:54:07;22.20;99.90
52769;DHT22;40471;44.534;18.644;2023-06-10T19:56:33;22.20;99.90
52769;DHT22;40471;44.534;18.644;2023-06-10T19:58:58;22.20;99.90
52769;DHT22;40471;44.534;18.644;2023-06-10T20:01:24;22.20;99.90
52769;DHT22;40471;44.534;18.644;2023-06-10T20:03:50;22.10;99.90
52769;DHT22;40471;44.534;18.644;2023-06-10T20:06:15;21.90;99.90
52769;DHT22;40471;44.534;18.644;2023-06-10T20:08:41;21.90;99.90
52769;DHT22;40471;44.534;18.644;2023-06-10T20:11:07;21.90;99.90
52769;DHT22;40471;44.534;18.644;2023-06-10T20:13:32;21.90;99.90
52769;DHT22;40471;44.534;18.644;2023-06-10T20:15:58;21.90;99.90
52769;DHT22;40471;44.534;18.644;2023-06-10T20:18:23;21.90;99.90
52769;DHT22;40471;44.534;18.644;2023-06-10T20:20:49;21.90;99.90
52769;DHT22;40471;44.534;18.644;2023-06-10T20:23:15;21.80;99.90
52769;DHT22;40471;44.534;18.644;2023-06-10T20:25:41;21.80;99.90
52769;DHT22;40471;44.534;18.644;2023-06-10T20:28:06;21.80;99.90
52769;DHT22;40471;44.534;18.644;2023-06-10T20:30:32;21.80;99.90
52769;DHT22;40471;44.534;18.644;2023-06-10T20:32:58;21.80;99.90
52769;DHT22;40471;44.534;18.644;2023-06-10T20:35:23;21.70;99.90
52769;DHT22;40471;44.534;18.644;2023-06-10T20:37:49;21.60;99.90
52769;DHT22;40471;44.534;18.644;2023-06-10T20:40:15;21.70;99.90
52769;DHT22;40471;44.534;18.644;2023-06-10T20:42:41;21.70;99.90
52769;DHT22;40471;44.534;18.644;2023-06-10T20:45:06;21.70;99.90
52769;DHT22;40471;44.534;18.644;2023-06-10T20:47:32;21.70;99.90
52769;DHT22;40471;44.534;18.644;2023-06-10T20:49:58;21.70;99.90
52769;DHT22;40471;44.534;18.644;2023-06-10T20:52:23;21.70;99.90
52769;DHT22;40471;44.534;18.644;2023-06-10T20:54:49;21.70;99.90
52769;DHT22;40471;44.534;18.644;2023-06-10T20:57:15;21.60;99.90
52769;DHT22;40471;44.534;18.644;2023-06-10T20:59:40;21.60;99.90
52769;DHT22;40471;44.534;18.644;2023-06-10T21:02:06;21.50;99.90
52769;DHT22;40471;44.534;18.644;2023-06-10T21:04:32;21.50;99.90
52769;DHT22;40471;44.534;18.644;2023-06-10T21:06:58;21.50;99.90
52769;DHT22;40471;44.534;18.644;2023-06-10T21:09:23;21.50;99.90
52769;DHT22;40471;44.534;18.644;2023-06-10T21:11:49;21.50;99.90
52769;DHT22;40471;44.534;18.644;2023-06-10T21:14:15;21.50;99.90
52769;DHT22;40471;44.534;18.644;2023-06-10T21:16:41;21.50;99.90
52769;DHT22;40471;44.534;18.644;2023-06-10T21:19:07;21.50;99.90
52769;DHT22;40471;44.534;18.644;2023-06-10T21:21:32;21.70;99.90
52769;DHT22;40471;44.534;18.644;2023-06-10T21:23:58;21.50;99.90
52769;DHT22;40471;44.534;18.644;2023-06-10T21:26:24;21.50;99.90
52769;DHT22;40471;44.534;18.644;2023-06-10T21:28:50;21.50;99.90
52769;DHT22;40471;44.534;18.644;2023-06-10T21:31:16;21.50;99.90
52769;DHT22;40471;44.534;18.644;2023-06-10T21:33:41;21.30;99.90
52769;DHT22;40471;44.534;18.644;2023-06-10T21:36:07;21.40;99.90
52769;DHT22;40471;44.534;18.644;2023-06-10T21:38:33;21.40;99.90
52769;DHT22;40471;44.534;18.644;2023-06-10T21:40:58;21.40;99.90
52769;DHT22;40471;44.534;18.644;2023-06-10T21:43:24;21.40;99.90
52769;DHT22;40471;44.534;18.644;2023-06-10T21:45:49;21.40;99.90
52769;DHT22;40471;44.534;18.644;2023-06-10T21:48:15;21.30;99.90
52769;DHT22;40471;44.534;18.644;2023-06-10T21:50:40;21.30;99.90
52769;DHT22;40471;44.534;18.644;2023-06-10T21:53:06;21.30;99.90
52769;DHT22;40471;44.534;18.644;2023-06-10T21:55:32;21.20;99.90
52769;DHT22;40471;44.534;18.644;2023-06-10T21:57:57;21.20;99.90
52769;DHT22;40471;44.534;18.644;2023-06-10T22:00:23;21.20;99.90
52769;DHT22;40471;44.534;18.644;2023-06-10T22:02:49;21.20;99.90
52769;DHT22;40471;44.534;18.644;2023-06-10T22:05:15;21.20;99.90
52769;DHT22;40471;44.534;18.644;2023-06-10T22:07:41;21.10;99.90
52769;DHT22;40471;44.534;18.644;2023-06-10T22:10:07;21.10;99.90
52769;DHT22;40471;44.534;18.644;2023-06-10T22:12:32;21.10;99.90
52769;DHT22;40471;44.534;18.644;2023-06-10T22:14:58;21.10;99.90
52769;DHT22;40471;44.534;18.644;2023-06-10T22:17:24;21.10;99.90
52769;DHT22;40471;44.534;18.644;2023-06-10T22:19:49;21.10;99.90
52769;DHT22;40471;44.534;18.644;2023-06-10T22:22:15;20.90;99.90
52769;DHT22;40471;44.534;18.644;2023-06-10T22:24:41;20.80;99.90
52769;DHT22;40471;44.534;18.644;2023-06-10T22:27:07;20.80;99.90
52769;DHT22;40471;44.534;18.644;2023-06-10T22:29:34;20.80;99.90
52769;DHT22;40471;44.534;18.644;2023-06-10T22:32:00;20.90;99.90
52769;DHT22;40471;44.534;18.644;2023-06-10T22:34:25;20.80;99.90
52769;DHT22;40471;44.534;18.644;2023-06-10T22:36:51;20.90;99.90
52769;DHT22;40471;44.534;18.644;2023-06-10T22:39:17;20.90;99.90
52769;DHT22;40471;44.534;18.644;2023-06-10T22:41:43;20.90;99.90
52769;DHT22;40471;44.534;18.644;2023-06-10T22:44:09;21.00;99.90
52769;DHT22;40471;44.534;18.644;2023-06-10T22:46:35;21.00;99.90
52769;DHT22;40471;44.534;18.644;2023-06-10T22:49:09;21.00;99.90
52769;DHT22;40471;44.534;18.644;2023-06-10T22:51:37;21.00;99.90
52769;DHT22;40471;44.534;18.644;2023-06-10T22:54:03;21.00;99.90
52769;DHT22;40471;44.534;18.644;2023-06-10T22:56:29;21.00;99.90
52769;DHT22;40471;44.534;18.644;2023-06-10T22:58:54;21.00;99.90
52769;DHT22;40471;44.534;18.644;2023-06-10T23:01:38;21.10;99.90
52769;DHT22;40471;44.534;18.644;2023-06-10T23:04:23;21.00;99.90
52769;DHT22;40471;44.534;18.644;2023-06-10T23:07:07;21.00;99.90
52769;DHT22;40471;44.534;18.644;2023-06-10T23:09:51;21.00;99.90
52769;DHT22;40471;44.534;18.644;2023-06-10T23:12:36;21.10;99.90
52769;DHT22;40471;44.534;18.644;2023-06-10T23:15:20;21.00;99.90
52769;DHT22;40471;44.534;18.644;2023-06-10T23:18:04;21.00;99.90
52769;DHT22;40471;44.534;18.644;2023-06-10T23:20:48;21.10;99.90
52769;DHT22;40471;44.534;18.644;2023-06-10T23:23:33;21.10;99.90
52769;DHT22;40471;44.534;18.644;2023-06-10T23:26:17;21.10;99.90
52769;DHT22;40471;44.534;18.644;2023-06-10T23:29:01;21.20;99.90
52769;DHT22;40471;44.534;18.644;2023-06-10T23:31:45;21.10;99.90
52769;DHT22;40471;44.534;18.644;2023-06-10T23:34:30;21.10;99.90
52769;DHT22;40471;44.534;18.644;2023-06-10T23:37:15;21.10;99.90
52769;DHT22;40471;44.534;18.644;2023-06-10T23:39:59;21.10;99.90
52769;DHT22;40471;44.534;18.644;2023-06-10T23:42:43;20.80;99.90
52769;DHT22;40471;44.534;18.644;2023-06-10T23:45:27;20.70;99.90
52769;DHT22;40471;44.534;18.644;2023-06-10T23:48:12;20.30;99.90
52769;DHT22;40471;44.534;18.644;2023-06-10T23:50:56;20.50;99.90
52769;DHT22;40471;44.534;18.644;2023-06-10T23:53:40;20.60;99.90
52769;DHT22;40471;44.534;18.644;2023-06-10T23:56:25;20.60;99.90
52769;DHT22;40471;44.534;18.644;2023-06-10T23:59:09;20.60;99.90
